createdAt,value
2018-12-25T00:02:00.211Z,5.80
2018-12-25T00:04:29.117Z,5.80
2018-12-25T00:06:57.959Z,5.70
2018-12-25T00:09:26.797Z,5.70
2018-12-25T00:11:55.722Z,5.70
2018-12-25T00:14:24.572Z,5.70
2018-12-25T00:16:53.378Z,5.70
2018-12-25T00:19:22.214Z,5.70
2018-12-25T00:21:51.055Z,5.70
2018-12-25T00:24:19.871Z,5.70
2018-12-25T00:26:48.729Z,5.70
2018-12-25T00:29:17.713Z,5.70
2018-12-25T00:31:46.741Z,5.70
2018-12-25T00:34:15.711Z,5.70
2018-12-25T00:36:44.735Z,5.70
2018-12-25T00:39:13.543Z,5.70
2018-12-25T00:41:42.415Z,5.70
2018-12-25T00:44:11.279Z,5.70
2018-12-25T00:46:40.090Z,5.70
2018-12-25T00:49:14.744Z,5.70
2018-12-25T00:51:39.613Z,5.70
2018-12-25T00:54:08.438Z,5.70
2018-12-25T00:56:37.261Z,5.80
2018-12-25T00:59:06.294Z,5.80
2018-12-25T01:01:35.188Z,5.80
2018-12-25T01:04:04.090Z,5.80
2018-12-25T01:06:32.922Z,5.80
2018-12-25T01:09:01.816Z,5.80
2018-12-25T01:11:30.741Z,5.80
2018-12-25T01:13:59.546Z,5.80
2018-12-25T01:16:28.357Z,5.80
2018-12-25T01:18:57.186Z,5.80
2018-12-25T01:21:26.011Z,5.70
2018-12-25T01:23:54.899Z,5.80
2018-12-25T01:26:23.731Z,5.80
2018-12-25T01:28:52.731Z,5.80
2018-12-25T01:31:21.631Z,5.80
2018-12-25T01:33:52.095Z,5.80
2018-12-25T01:36:20.907Z,5.80
2018-12-25T01:38:49.768Z,5.80
2018-12-25T01:41:18.603Z,5.90
2018-12-25T01:43:47.537Z,5.90
2018-12-25T01:46:16.359Z,5.80
2018-12-25T01:48:45.327Z,5.90
2018-12-25T01:51:14.162Z,5.90
2018-12-25T01:53:42.978Z,5.90
2018-12-25T01:56:11.937Z,5.90
2018-12-25T01:58:40.830Z,5.80
2018-12-25T02:01:09.724Z,5.80
2018-12-25T02:03:38.677Z,5.80
2018-12-25T02:06:07.458Z,5.80
2018-12-25T02:08:36.325Z,5.80
2018-12-25T02:11:05.232Z,5.80
2018-12-25T02:13:34.076Z,5.80
2018-12-25T02:16:02.884Z,5.80
2018-12-25T02:18:31.728Z,5.80
2018-12-25T02:21:00.545Z,5.80
2018-12-25T02:23:29.376Z,5.80
2018-12-25T02:25:58.207Z,5.80
2018-12-25T02:28:27.115Z,5.80
2018-12-25T02:30:55.930Z,5.80
2018-12-25T02:33:24.782Z,5.80
2018-12-25T02:35:53.732Z,5.80
2018-12-25T02:38:22.568Z,5.80
2018-12-25T02:40:51.394Z,5.80
2018-12-25T02:43:20.218Z,5.80
2018-12-25T02:45:49.061Z,5.80
2018-12-25T02:48:17.879Z,5.80
2018-12-25T02:50:46.867Z,5.80
2018-12-25T02:53:15.795Z,5.80
2018-12-25T02:55:44.727Z,5.80
2018-12-25T02:58:13.615Z,5.80
2018-12-25T03:00:42.572Z,5.80
2018-12-25T03:03:11.479Z,5.80
2018-12-25T03:05:40.303Z,5.80
2018-12-25T03:08:09.137Z,5.80
2018-12-25T03:10:37.940Z,5.80
2018-12-25T03:13:07.370Z,5.80
2018-12-25T03:15:36.198Z,5.80
2018-12-25T03:18:05.028Z,5.80
2018-12-25T03:20:34.184Z,5.80
2018-12-25T03:23:02.985Z,5.80
2018-12-25T03:25:31.807Z,5.80
2018-12-25T03:28:00.714Z,5.80
2018-12-25T03:30:29.523Z,5.80
2018-12-25T03:32:58.568Z,5.80
2018-12-25T03:35:27.542Z,5.80
2018-12-25T03:37:56.385Z,5.80
2018-12-25T03:40:25.214Z,5.80
2018-12-25T03:42:54.098Z,5.80
2018-12-25T03:45:22.965Z,5.80
2018-12-25T03:47:51.864Z,5.80
2018-12-25T03:50:20.768Z,5.80
2018-12-25T03:52:49.563Z,5.80
2018-12-25T03:55:18.415Z,5.80
2018-12-25T03:57:47.358Z,5.80
2018-12-25T04:00:16.275Z,5.80
2018-12-25T04:02:45.105Z,5.80
2018-12-25T04:05:14.213Z,5.80
2018-12-25T04:07:43.012Z,5.80
2018-12-25T04:10:11.809Z,5.80
2018-12-25T04:12:40.659Z,5.80
2018-12-25T04:15:09.552Z,5.80
2018-12-25T04:17:38.378Z,5.80
2018-12-25T04:20:08.083Z,5.80
2018-12-25T04:22:36.945Z,5.80
2018-12-25T04:25:05.965Z,5.80
2018-12-25T04:27:34.799Z,5.70
2018-12-25T04:30:03.783Z,5.70
2018-12-25T04:32:32.684Z,5.70
2018-12-25T04:35:01.531Z,5.70
2018-12-25T04:37:30.432Z,5.70
2018-12-25T04:39:59.484Z,5.70
2018-12-25T04:42:28.312Z,5.70
2018-12-25T04:44:57.147Z,5.70
2018-12-25T04:47:25.974Z,5.70
2018-12-25T04:49:54.914Z,5.70
2018-12-25T04:52:23.916Z,5.70
2018-12-25T04:54:52.741Z,5.70
2018-12-25T04:57:21.610Z,5.70
2018-12-25T04:59:50.487Z,5.70
2018-12-25T05:02:19.343Z,5.70
2018-12-25T05:04:48.227Z,5.70
2018-12-25T05:07:17.099Z,5.70
2018-12-25T05:09:45.950Z,5.70
2018-12-25T05:12:14.766Z,5.70
2018-12-25T05:14:43.575Z,5.70
2018-12-25T05:17:12.394Z,5.70
2018-12-25T05:19:41.238Z,5.70
2018-12-25T05:22:10.034Z,5.70
2018-12-25T05:24:38.921Z,5.70
2018-12-25T05:27:07.906Z,5.70
2018-12-25T05:29:36.795Z,5.60
2018-12-25T05:32:05.626Z,5.60
2018-12-25T05:34:34.439Z,5.60
2018-12-25T05:37:03.293Z,5.50
2018-12-25T05:39:32.099Z,5.50
2018-12-25T05:42:00.930Z,5.50
2018-12-25T05:44:29.759Z,5.50
2018-12-25T05:46:58.654Z,5.50
2018-12-25T05:49:27.558Z,5.40
2018-12-25T05:51:56.371Z,5.40
2018-12-25T05:54:25.314Z,5.40
2018-12-25T05:56:54.127Z,5.40
2018-12-25T05:59:22.927Z,5.40
2018-12-25T06:01:51.858Z,5.40
2018-12-25T06:04:20.742Z,5.40
2018-12-25T06:06:49.580Z,5.40
2018-12-25T06:09:18.395Z,5.40
2018-12-25T06:11:47.357Z,5.30
2018-12-25T06:14:16.208Z,5.30
2018-12-25T06:16:45.009Z,5.30
2018-12-25T06:19:13.897Z,5.30
2018-12-25T06:21:42.739Z,5.30
2018-12-25T06:24:11.645Z,5.30
2018-12-25T06:26:40.467Z,5.30
2018-12-25T06:29:09.325Z,5.30
2018-12-25T06:31:38.143Z,5.20
2018-12-25T06:34:06.958Z,5.20
2018-12-25T06:36:35.791Z,5.20
2018-12-25T06:39:06.383Z,5.20
2018-12-25T06:41:35.222Z,5.20
2018-12-25T06:44:04.156Z,5.20
2018-12-25T06:46:32.980Z,5.20
2018-12-25T06:49:01.795Z,5.20
2018-12-25T06:51:30.611Z,5.30
2018-12-25T06:53:59.446Z,5.20
2018-12-25T06:56:28.269Z,5.20
2018-12-25T06:58:57.230Z,5.20
2018-12-25T07:01:26.124Z,5.20
2018-12-25T07:03:54.936Z,5.20
2018-12-25T07:06:23.752Z,5.20
2018-12-25T07:08:52.608Z,5.20
2018-12-25T07:11:21.447Z,5.20
2018-12-25T07:13:50.424Z,5.20
2018-12-25T07:16:19.311Z,5.20
2018-12-25T07:18:48.155Z,5.20
2018-12-25T07:21:17.057Z,5.20
2018-12-25T07:23:45.964Z,5.20
2018-12-25T07:26:14.779Z,5.20
2018-12-25T07:28:43.638Z,5.20
2018-12-25T07:31:12.438Z,5.20
2018-12-25T07:33:41.277Z,5.20
2018-12-25T07:36:10.087Z,5.20
2018-12-25T07:38:38.932Z,5.20
2018-12-25T07:41:07.766Z,5.20
2018-12-25T07:43:36.684Z,5.20
2018-12-25T07:46:05.578Z,5.20
2018-12-25T07:48:34.396Z,5.20
2018-12-25T07:51:03.246Z,5.20
2018-12-25T07:53:32.053Z,5.20
2018-12-25T07:56:00.894Z,5.20
2018-12-25T07:58:29.786Z,5.20
2018-12-25T08:00:58.690Z,5.20
2018-12-25T08:03:27.579Z,5.20
2018-12-25T08:05:56.470Z,5.20
2018-12-25T08:08:25.536Z,5.20
2018-12-25T08:10:54.437Z,5.20
2018-12-25T08:13:23.346Z,5.20
2018-12-25T08:15:52.157Z,5.20
2018-12-25T08:18:21.013Z,5.30
2018-12-25T08:20:49.814Z,5.30
2018-12-25T08:23:18.651Z,5.30
2018-12-25T08:25:47.787Z,5.30
2018-12-25T08:28:16.812Z,5.30
2018-12-25T08:30:45.714Z,5.30
2018-12-25T08:33:14.563Z,5.30
2018-12-25T08:35:43.412Z,5.30
2018-12-25T08:38:12.279Z,5.30
2018-12-25T08:40:41.120Z,5.30
2018-12-25T08:43:09.966Z,5.30
2018-12-25T08:45:38.799Z,5.30
2018-12-25T08:48:07.651Z,5.30
2018-12-25T08:50:36.552Z,5.30
2018-12-25T08:53:05.402Z,5.30
2018-12-25T08:55:34.409Z,5.30
2018-12-25T08:58:03.227Z,5.30
2018-12-25T09:00:32.262Z,5.40
2018-12-25T09:03:01.083Z,5.40
2018-12-25T09:05:29.921Z,5.40
2018-12-25T09:07:58.882Z,5.40
2018-12-25T09:10:27.701Z,5.40
2018-12-25T09:12:56.553Z,5.40
2018-12-25T09:15:25.493Z,5.40
2018-12-25T09:17:54.535Z,5.50
2018-12-25T09:20:42.642Z,5.50
2018-12-25T09:23:11.498Z,5.50
2018-12-25T09:25:40.332Z,5.50
2018-12-25T09:28:09.167Z,5.50
2018-12-25T09:30:38.034Z,5.50
2018-12-25T09:33:06.859Z,5.60
2018-12-25T09:35:35.716Z,5.60
2018-12-25T09:38:04.726Z,5.60
2018-12-25T09:40:33.566Z,5.60
2018-12-25T09:43:02.487Z,5.60
2018-12-25T09:45:31.318Z,5.60
2018-12-25T09:48:00.132Z,5.60
2018-12-25T09:50:29.902Z,5.70
2018-12-25T09:52:58.735Z,5.70
2018-12-25T09:55:27.966Z,5.70
2018-12-25T09:57:56.866Z,5.70
2018-12-25T10:00:25.731Z,5.70
2018-12-25T10:02:54.618Z,5.70
2018-12-25T10:05:23.474Z,5.80
2018-12-25T10:07:52.316Z,5.80
2018-12-25T10:10:21.509Z,5.80
2018-12-25T10:12:50.344Z,5.80
2018-12-25T10:15:19.360Z,5.80
2018-12-25T10:17:48.562Z,5.90
2018-12-25T10:20:17.554Z,5.90
2018-12-25T10:22:46.494Z,5.90
2018-12-25T10:25:15.358Z,5.90
2018-12-25T10:27:44.196Z,5.90
2018-12-25T10:30:13.147Z,6.00
2018-12-25T10:32:41.987Z,6.00
2018-12-25T10:35:10.826Z,6.00
2018-12-25T10:37:40.559Z,6.00
2018-12-25T10:40:09.629Z,6.00
2018-12-25T10:42:38.446Z,6.10
2018-12-25T10:45:07.480Z,6.10
2018-12-25T10:47:36.361Z,6.10
2018-12-25T10:50:06.472Z,6.10
2018-12-25T10:52:35.360Z,6.20
2018-12-25T10:55:04.387Z,6.20
2018-12-25T10:57:33.194Z,6.20
2018-12-25T11:00:02.081Z,6.20
2018-12-25T11:02:30.915Z,6.30
2018-12-25T11:04:59.836Z,6.30
2018-12-25T11:07:28.798Z,6.30
2018-12-25T11:09:57.617Z,6.40
2018-12-25T11:12:26.586Z,6.40
2018-12-25T11:14:56.259Z,6.40
2018-12-25T11:17:25.152Z,6.50
2018-12-25T11:19:53.988Z,6.50
2018-12-25T11:22:22.840Z,6.50
2018-12-25T11:24:51.650Z,6.60
2018-12-25T11:27:20.476Z,6.60
2018-12-25T11:29:49.302Z,6.60
2018-12-25T11:32:18.123Z,6.70
2018-12-25T11:34:46.955Z,6.70
2018-12-25T11:37:15.852Z,6.70
2018-12-25T11:39:44.694Z,6.70
2018-12-25T11:42:13.509Z,6.70
2018-12-25T11:44:42.411Z,6.80
2018-12-25T11:47:11.235Z,6.80
2018-12-25T11:49:40.083Z,6.80
2018-12-25T11:52:09.039Z,6.80
2018-12-25T11:54:37.993Z,6.90
2018-12-25T11:57:50.470Z,6.90
2018-12-25T12:00:37.848Z,6.90
2018-12-25T12:03:20.118Z,7.00
2018-12-25T12:05:49.106Z,7.00
2018-12-25T12:08:17.968Z,7.00
2018-12-25T12:10:46.895Z,7.10
2018-12-25T12:13:15.794Z,7.10
2018-12-25T12:15:44.719Z,7.10
2018-12-25T12:18:13.543Z,7.10
2018-12-25T12:20:42.512Z,7.20
2018-12-25T12:23:11.382Z,7.20
2018-12-25T12:25:40.230Z,7.20
2018-12-25T12:28:09.191Z,7.20
2018-12-25T12:30:38.143Z,7.20
2018-12-25T12:33:07.067Z,7.20
2018-12-25T12:35:35.934Z,7.20
2018-12-25T12:38:04.760Z,7.20
2018-12-25T12:40:33.608Z,7.20
2018-12-25T12:43:02.438Z,7.20
2018-12-25T12:45:31.329Z,7.30
2018-12-25T12:48:00.293Z,7.30
2018-12-25T12:50:29.131Z,7.30
2018-12-25T12:52:57.986Z,7.30
2018-12-25T12:55:26.990Z,7.30
2018-12-25T12:57:55.826Z,7.30
2018-12-25T13:00:24.711Z,7.30
2018-12-25T13:02:53.622Z,7.30
2018-12-25T13:05:22.435Z,7.20
2018-12-25T13:07:51.306Z,7.30
2018-12-25T13:10:20.258Z,7.30
2018-12-25T13:12:49.168Z,7.30
2018-12-25T13:15:18.102Z,7.30
2018-12-25T13:17:46.962Z,7.30
2018-12-25T13:20:35.064Z,7.30
2018-12-25T13:23:03.955Z,7.30
2018-12-25T13:25:32.788Z,7.30
2018-12-25T13:28:01.614Z,7.30
2018-12-25T13:30:30.427Z,7.30
2018-12-25T13:32:59.268Z,7.30
2018-12-25T13:35:28.112Z,7.20
2018-12-25T13:37:56.939Z,7.20
2018-12-25T13:40:25.829Z,7.20
2018-12-25T13:42:54.693Z,7.20
2018-12-25T13:45:23.646Z,7.20
2018-12-25T13:47:52.496Z,7.20
2018-12-25T13:50:21.342Z,7.20
2018-12-25T13:52:50.177Z,7.10
2018-12-25T13:55:19.034Z,7.10
2018-12-25T13:57:47.921Z,7.10
2018-12-25T14:00:16.766Z,7.10
2018-12-25T14:02:45.776Z,7.00
2018-12-25T14:05:14.676Z,7.00
2018-12-25T14:07:43.502Z,7.00
2018-12-25T14:10:12.554Z,7.00
2018-12-25T14:12:41.434Z,7.00
2018-12-25T14:15:10.398Z,7.00
2018-12-25T14:17:39.258Z,7.00
2018-12-25T14:20:08.308Z,7.00
2018-12-25T14:22:37.270Z,6.90
2018-12-25T14:25:06.609Z,6.90
2018-12-25T14:27:35.497Z,6.90
2018-12-25T14:30:04.603Z,6.80
2018-12-25T14:32:33.478Z,6.80
2018-12-25T14:35:02.286Z,6.80
2018-12-25T14:37:31.222Z,6.80
2018-12-25T14:40:00.056Z,6.80
2018-12-25T14:42:29.046Z,6.80
2018-12-25T14:44:57.914Z,6.70
2018-12-25T14:47:26.749Z,6.70
2018-12-25T14:49:55.714Z,6.70
2018-12-25T14:52:24.519Z,6.70
2018-12-25T14:54:53.767Z,6.60
2018-12-25T14:57:22.853Z,6.60
2018-12-25T14:59:51.726Z,6.60
2018-12-25T15:02:20.554Z,6.60
2018-12-25T15:04:49.375Z,6.50
2018-12-25T15:07:18.209Z,6.50
2018-12-25T15:09:47.106Z,6.50
2018-12-25T15:12:15.933Z,6.40
2018-12-25T15:14:44.856Z,6.40
2018-12-25T15:17:13.779Z,6.30
2018-12-25T15:19:42.651Z,6.30
2018-12-25T15:22:11.594Z,6.20
2018-12-25T15:24:40.430Z,6.20
2018-12-25T15:27:09.315Z,6.10
2018-12-25T15:29:38.188Z,6.10
2018-12-25T15:32:07.078Z,6.10
2018-12-25T15:34:36.028Z,6.00
2018-12-25T15:37:04.932Z,6.00
2018-12-25T15:39:33.796Z,6.00
2018-12-25T15:42:02.632Z,5.90
2018-12-25T15:44:30.878Z,5.90
2018-12-25T15:46:59.705Z,5.80
2018-12-25T15:49:28.618Z,5.80
2018-12-25T15:51:58.415Z,5.70
2018-12-25T15:54:27.426Z,5.70
2018-12-25T15:56:58.056Z,5.70
2018-12-25T15:59:26.875Z,5.70
2018-12-25T16:01:55.705Z,5.60
2018-12-25T16:04:24.534Z,5.60
2018-12-25T16:06:53.405Z,5.60
2018-12-25T16:09:22.332Z,5.60
2018-12-25T16:11:51.283Z,5.50
2018-12-25T16:14:20.190Z,5.50
2018-12-25T16:16:49.102Z,5.40
2018-12-25T16:19:17.986Z,5.40
2018-12-25T16:21:48.000Z,5.30
2018-12-25T16:24:17.063Z,5.20
2018-12-25T16:26:45.983Z,5.20
2018-12-25T16:29:14.884Z,5.20
2018-12-25T16:31:43.809Z,5.10
2018-12-25T16:34:12.688Z,5.10
2018-12-25T16:36:41.538Z,5.10
2018-12-25T16:39:10.372Z,5.00
2018-12-25T16:41:39.214Z,5.00
2018-12-25T16:44:08.035Z,5.00
2018-12-25T16:46:36.843Z,5.00
2018-12-25T16:49:05.697Z,5.00
2018-12-25T16:51:34.588Z,4.90
2018-12-25T16:54:03.402Z,4.90
2018-12-25T16:56:32.210Z,4.90
2018-12-25T16:59:01.139Z,4.90
2018-12-25T17:01:30.047Z,4.80
2018-12-25T17:03:58.882Z,4.80
2018-12-25T17:06:27.920Z,4.80
2018-12-25T17:08:56.903Z,4.80
2018-12-25T17:11:25.731Z,4.80
2018-12-25T17:13:54.576Z,4.80
2018-12-25T17:16:23.420Z,4.80
2018-12-25T17:18:52.340Z,4.80
2018-12-25T17:21:21.160Z,4.80
2018-12-25T17:23:50.007Z,4.80
2018-12-25T17:26:18.922Z,4.80
2018-12-25T17:28:48.148Z,4.80
2018-12-25T17:31:17.026Z,4.80
2018-12-25T17:33:45.935Z,4.80
2018-12-25T17:36:14.738Z,4.80
2018-12-25T17:38:43.582Z,4.70
2018-12-25T17:41:12.711Z,4.70
2018-12-25T17:43:41.619Z,4.70
2018-12-25T17:46:10.536Z,4.70
2018-12-25T17:48:39.396Z,4.70
2018-12-25T17:51:08.298Z,4.70
2018-12-25T17:53:37.181Z,4.70
2018-12-25T17:56:06.022Z,4.70
2018-12-25T17:58:34.923Z,4.70
2018-12-25T18:01:03.759Z,4.70
2018-12-25T18:03:32.595Z,4.60
2018-12-25T18:06:01.427Z,4.60
2018-12-25T18:08:30.330Z,4.60
2018-12-25T18:10:59.163Z,4.60
2018-12-25T18:13:28.005Z,4.50
2018-12-25T18:15:56.908Z,4.50
2018-12-25T18:18:25.740Z,4.50
2018-12-25T18:20:54.666Z,4.50
2018-12-25T18:23:23.505Z,4.50
2018-12-25T18:25:52.391Z,4.40
2018-12-25T18:28:21.210Z,4.50
2018-12-25T18:30:50.031Z,4.50
2018-12-25T18:33:18.896Z,4.50
2018-12-25T18:35:47.781Z,4.50
2018-12-25T18:38:16.604Z,4.50
2018-12-25T18:40:45.407Z,4.50
2018-12-25T18:43:14.241Z,4.50
2018-12-25T18:45:43.058Z,4.50
2018-12-25T18:48:12.091Z,4.50
2018-12-25T18:50:40.989Z,4.50
2018-12-25T18:53:09.779Z,4.50
2018-12-25T18:55:40.263Z,4.50
2018-12-25T18:58:09.312Z,4.50
2018-12-25T19:00:38.221Z,4.50
2018-12-25T19:03:07.085Z,4.50
2018-12-25T19:05:35.906Z,4.50
2018-12-25T19:08:04.834Z,4.50
2018-12-25T19:10:33.664Z,4.50
2018-12-25T19:13:02.489Z,4.50
2018-12-25T19:15:33.200Z,4.50
2018-12-25T19:18:02.757Z,4.50
2018-12-25T19:20:31.690Z,4.50
2018-12-25T19:23:00.598Z,4.50
2018-12-25T19:25:29.486Z,4.50
2018-12-25T19:27:58.316Z,4.50
2018-12-25T19:30:29.464Z,4.50
2018-12-25T19:32:58.375Z,4.50
2018-12-25T19:35:27.268Z,4.50
2018-12-25T19:37:56.231Z,4.50
2018-12-25T19:40:25.071Z,4.50
2018-12-25T19:42:54.041Z,4.50
2018-12-25T19:45:24.410Z,4.50
2018-12-25T19:47:53.346Z,4.50
2018-12-25T19:50:24.337Z,4.50
2018-12-25T19:52:52.954Z,4.50
2018-12-25T19:55:21.849Z,4.50
2018-12-25T19:57:50.827Z,4.50
2018-12-25T20:00:19.877Z,4.50
2018-12-25T20:02:59.909Z,4.50
2018-12-25T20:06:03.040Z,4.60
2018-12-25T20:09:25.544Z,4.50
2018-12-25T20:12:37.031Z,4.50
2018-12-25T20:15:18.099Z,4.50
2018-12-25T20:18:26.579Z,4.50
2018-12-25T20:21:41.471Z,4.50
2018-12-25T20:24:52.821Z,4.50
2018-12-25T20:27:52.519Z,4.50
2018-12-25T20:30:56.350Z,4.60
2018-12-25T20:33:48.194Z,4.50
2018-12-25T20:37:00.151Z,4.60
2018-12-25T20:40:12.803Z,4.60
2018-12-25T20:43:11.230Z,4.60
2018-12-25T20:46:15.844Z,4.60
2018-12-25T20:49:25.871Z,4.60
2018-12-25T20:52:21.807Z,4.60
2018-12-25T20:55:42.951Z,4.60
2018-12-25T20:58:51.886Z,4.60
2018-12-25T21:01:56.676Z,4.60
2018-12-25T21:05:01.271Z,4.60
2018-12-25T21:08:13.567Z,4.60
2018-12-25T21:11:32.683Z,4.60
2018-12-25T21:14:48.755Z,4.60
2018-12-25T21:17:48.792Z,4.60
2018-12-25T21:20:53.441Z,4.50
2018-12-25T21:24:11.552Z,4.60
2018-12-25T21:27:16.383Z,4.60
2018-12-25T21:29:45.550Z,4.50
2018-12-25T21:32:14.535Z,4.60
2018-12-25T21:34:43.519Z,4.60
2018-12-25T21:37:13.912Z,4.60
2018-12-25T21:39:43.498Z,4.60
2018-12-25T21:42:13.811Z,4.60
2018-12-25T21:44:43.083Z,4.50
2018-12-25T21:47:12.089Z,4.60
2018-12-25T21:49:45.729Z,4.60
2018-12-25T21:52:15.100Z,4.60
2018-12-25T21:54:44.205Z,4.60
2018-12-25T21:57:13.478Z,4.60
2018-12-25T21:59:43.279Z,4.50
2018-12-25T22:02:12.566Z,4.60
2018-12-25T22:04:41.419Z,4.60
2018-12-25T22:07:10.255Z,4.60
2018-12-25T22:09:39.055Z,4.60
2018-12-25T22:12:07.967Z,4.50
2018-12-25T22:14:36.828Z,4.50
2018-12-25T22:17:05.740Z,4.60
2018-12-25T22:19:34.567Z,4.50
2018-12-25T22:22:03.562Z,4.50
2018-12-25T22:24:32.468Z,4.50
2018-12-25T22:27:01.429Z,4.50
2018-12-25T22:29:30.285Z,4.50
2018-12-25T22:31:59.210Z,4.60
2018-12-25T22:34:28.143Z,4.60
2018-12-25T22:36:56.962Z,4.50
2018-12-25T22:39:25.793Z,4.60
2018-12-25T22:41:54.639Z,4.60
2018-12-25T22:44:23.635Z,4.60
2018-12-25T22:46:52.462Z,4.50
2018-12-25T22:49:21.328Z,4.60
2018-12-25T22:51:50.240Z,4.60
2018-12-25T22:54:19.110Z,4.60
2018-12-25T22:56:48.020Z,4.50
2018-12-25T22:59:16.915Z,4.60
2018-12-25T23:01:45.881Z,4.60
2018-12-25T23:04:14.745Z,4.60
2018-12-25T23:06:43.550Z,4.60
2018-12-25T23:09:12.392Z,4.60
2018-12-25T23:11:41.199Z,4.60
2018-12-25T23:14:10.046Z,4.60
2018-12-25T23:16:38.949Z,4.60
2018-12-25T23:19:07.856Z,4.60
2018-12-25T23:21:36.710Z,4.60
2018-12-25T23:24:05.552Z,4.60
2018-12-25T23:26:34.402Z,4.60
2018-12-25T23:29:03.502Z,4.60
2018-12-25T23:31:32.831Z,4.60
2018-12-25T23:34:01.683Z,4.60
2018-12-25T23:36:30.540Z,4.60
2018-12-25T23:38:59.437Z,4.60
2018-12-25T23:41:28.271Z,4.60
2018-12-25T23:43:57.114Z,4.60
2018-12-25T23:46:26.094Z,4.60
2018-12-25T23:48:54.919Z,4.60
2018-12-25T23:51:23.774Z,4.60
2018-12-25T23:53:52.609Z,4.60
2018-12-25T23:56:21.520Z,4.50
2018-12-25T23:58:50.422Z,4.60
